createdAt,value
2022-09-05T00:00:20.767Z,3.42
2022-09-05T00:02:06.095Z,3.57
2022-09-05T00:03:21.749Z,3.36
2022-09-05T00:04:35.173Z,3.42
2022-09-05T00:06:02.778Z,3.54
2022-09-05T00:07:36.032Z,3.53
2022-09-05T00:08:22.947Z,3.56
2022-09-05T00:09:39.228Z,3.61
2022-09-05T00:11:43.062Z,3.68
2022-09-05T00:12:15.698Z,3.64
2022-09-05T00:13:37.374Z,3.48
2022-09-05T00:15:16.730Z,3.42
2022-09-05T00:16:34.182Z,3.63
2022-09-05T00:18:32.471Z,3.81
2022-09-05T00:24:26.872Z,3.78
2022-09-05T00:24:31.033Z,3.77
2022-09-05T00:26:33.535Z,3.57
2022-09-05T00:27:58.937Z,3.51
2022-09-05T00:29:21.781Z,3.44
2022-09-05T00:31:51.505Z,3.25
2022-09-05T00:32:02.529Z,3.34
2022-09-05T00:33:17.511Z,3.51
2022-09-05T00:34:36.195Z,3.31
2022-09-05T00:35:49.587Z,4.01
2022-09-05T00:36:55.422Z,3.57
2022-09-05T00:38:02.492Z,3.51
2022-09-05T00:39:15.871Z,3.38
2022-09-05T00:40:36.748Z,3.30
2022-09-05T00:41:42.946Z,3.49
2022-09-05T00:42:50.024Z,3.49
2022-09-05T00:44:00.323Z,3.49
2022-09-05T00:45:14.612Z,3.56
2022-09-05T00:46:32.988Z,3.22
2022-09-05T00:47:41.980Z,3.59
2022-09-05T00:48:54.911Z,3.13
2022-09-05T00:51:28.534Z,3.67
2022-09-05T00:52:43.780Z,3.39
2022-09-05T00:54:03.690Z,3.58
2022-09-05T00:55:27.907Z,3.74
2022-09-05T00:56:45.289Z,3.39
2022-09-05T00:58:20.601Z,3.19
2022-09-05T00:59:59.133Z,3.34
2022-09-05T01:01:12.080Z,3.61
2022-09-05T01:02:37.902Z,3.66
2022-09-05T01:03:58.209Z,3.46
2022-09-05T01:05:19.611Z,3.46
2022-09-05T01:06:35.621Z,3.96
2022-09-05T01:09:29.054Z,3.80
2022-09-05T01:11:08.052Z,3.51
2022-09-05T01:12:16.120Z,3.59
2022-09-05T01:13:53.873Z,3.49
2022-09-05T01:15:20.616Z,3.31
2022-09-05T01:17:04.187Z,3.44
2022-09-05T01:18:17.402Z,3.31
2022-09-05T01:19:47.687Z,3.50
2022-09-05T01:20:59.308Z,3.46
2022-09-05T01:23:50.321Z,3.45
2022-09-05T01:25:15.096Z,3.53
2022-09-05T01:29:15.426Z,3.52
2022-09-05T01:29:55.610Z,3.32
2022-09-05T01:31:14.636Z,3.63
2022-09-05T01:32:42.096Z,3.52
2022-09-05T01:33:59.018Z,3.67
2022-09-05T01:35:42.225Z,3.56
2022-09-05T01:37:00.229Z,3.44
2022-09-05T01:38:12.966Z,3.18
2022-09-05T01:40:14.413Z,3.86
2022-09-05T01:41:18.434Z,3.37
2022-09-05T01:42:12.322Z,3.66
2022-09-05T01:43:31.810Z,3.24
2022-09-05T01:45:03.360Z,3.42
2022-09-05T01:46:33.835Z,3.72
2022-09-05T01:47:48.383Z,3.71
2022-09-05T01:49:09.462Z,3.60
2022-09-05T01:50:51.959Z,3.41
2022-09-05T01:52:33.769Z,3.23
2022-09-05T01:55:34.866Z,3.63
2022-09-05T01:56:43.740Z,3.50
2022-09-05T01:58:03.334Z,3.61
2022-09-05T01:59:15.116Z,3.59
2022-09-05T02:00:32.750Z,3.71
2022-09-05T02:01:52.192Z,3.68
2022-09-05T02:02:59.580Z,3.33
2022-09-05T02:04:12.121Z,3.88
2022-09-05T02:05:48.691Z,3.40
2022-09-05T02:06:45.425Z,3.52
2022-09-05T02:08:12.058Z,3.36
2022-09-05T02:09:31.126Z,3.28
2022-09-05T02:10:57.294Z,3.49
2022-09-05T02:12:04.005Z,3.59
2022-09-05T02:13:32.618Z,3.44
2022-09-05T02:14:45.549Z,3.06
2022-09-05T02:15:59.904Z,3.41
2022-09-05T02:17:23.423Z,3.11
2022-09-05T02:18:43.867Z,3.28
2022-09-05T02:19:51.068Z,3.14
2022-09-05T02:21:01.466Z,3.21
2022-09-05T02:22:14.478Z,3.07
2022-09-05T02:23:27.363Z,3.00
2022-09-05T02:24:39.968Z,3.03
2022-09-05T02:26:19.997Z,3.40
2022-09-05T02:28:04.246Z,3.42
2022-09-05T02:28:49.596Z,3.06
2022-09-05T02:30:09.446Z,3.14
2022-09-05T02:31:23.848Z,2.93
2022-09-05T02:33:03.062Z,3.49
2022-09-05T02:34:25.206Z,2.91
2022-09-05T02:35:37.327Z,3.24
2022-09-05T02:36:45.016Z,3.43
2022-09-05T02:40:00.935Z,3.64
2022-09-05T02:45:02.366Z,3.33
2022-09-05T02:45:06.887Z,3.24
2022-09-05T02:45:14.210Z,3.19
2022-09-05T02:45:14.649Z,2.84
2022-09-05T02:45:26.889Z,3.44
2022-09-05T02:48:27.228Z,3.49
2022-09-05T02:52:29.242Z,3.27
2022-09-05T02:57:25.826Z,3.18
2022-09-05T02:57:27.121Z,3.51
2022-09-05T02:57:39.221Z,3.01
2022-09-05T02:57:40.618Z,3.04
2022-09-05T02:58:07.199Z,3.02
2022-09-05T03:03:50.975Z,3.32
2022-09-05T03:05:04.651Z,3.04
2022-09-05T03:06:15.901Z,3.07
2022-09-05T03:07:45.531Z,3.17
2022-09-05T03:09:16.702Z,3.37
2022-09-05T03:10:53.706Z,3.16
2022-09-05T03:12:28.907Z,3.15
2022-09-05T03:13:28.427Z,2.97
2022-09-05T03:14:41.790Z,3.28
2022-09-05T03:16:24.373Z,2.88
2022-09-05T03:17:56.676Z,2.97
2022-09-05T03:19:16.337Z,3.29
2022-09-05T03:20:51.999Z,3.56
2022-09-05T03:22:17.540Z,3.33
2022-09-05T03:23:30.766Z,3.43
2022-09-05T03:25:06.364Z,3.35
2022-09-05T03:26:28.950Z,3.74
2022-09-05T03:28:11.558Z,3.28
2022-09-05T03:29:36.648Z,3.07
2022-09-05T03:31:20.561Z,3.02
2022-09-05T03:32:43.676Z,3.44
2022-09-05T03:34:15.108Z,3.21
2022-09-05T03:35:56.802Z,3.25
2022-09-05T03:37:07.304Z,3.21
2022-09-05T03:38:31.562Z,3.63
2022-09-05T03:40:16.082Z,3.32
2022-09-05T03:41:40.160Z,3.56
2022-09-05T03:43:01.909Z,3.35
2022-09-05T03:44:26.303Z,3.21
2022-09-05T03:45:46.168Z,3.24
2022-09-05T03:47:09.242Z,3.19
2022-09-05T03:48:28.730Z,3.46
2022-09-05T03:52:21.343Z,3.31
2022-09-05T03:57:05.990Z,2.93
2022-09-05T03:57:07.182Z,3.33
2022-09-05T03:57:17.660Z,2.96
2022-09-05T03:57:19.160Z,3.48
2022-09-05T03:57:38.649Z,3.26
2022-09-05T03:58:55.483Z,3.43
2022-09-05T04:00:11.262Z,3.27
2022-09-05T04:03:30.787Z,3.61
2022-09-05T04:05:31.038Z,3.23
2022-09-05T04:08:10.952Z,3.66
2022-09-05T04:08:17.043Z,3.51
2022-09-05T04:08:18.539Z,3.69
2022-09-05T04:08:19.632Z,3.42
2022-09-05T04:08:59.926Z,3.56
2022-09-05T04:10:28.052Z,4.03
2022-09-05T04:11:47.761Z,3.38
2022-09-05T04:12:55.213Z,3.42
2022-09-05T04:14:01.372Z,3.46
2022-09-05T04:15:24.699Z,3.58
2022-09-05T04:16:33.111Z,3.54
2022-09-05T04:17:43.528Z,3.42
2022-09-05T04:19:05.990Z,3.52
2022-09-05T04:20:38.445Z,3.63
2022-09-05T04:23:13.533Z,3.46
2022-09-05T04:24:36.803Z,4.03
2022-09-05T04:26:12.163Z,3.61
2022-09-05T04:27:34.585Z,3.50
2022-09-05T04:29:00.823Z,3.56
2022-09-05T04:30:39.694Z,3.26
2022-09-05T04:32:18.709Z,3.26
2022-09-05T04:33:36.975Z,3.31
2022-09-05T04:34:56.646Z,3.58
2022-09-05T04:36:31.698Z,3.62
2022-09-05T04:38:55.938Z,3.38
2022-09-05T04:40:23.080Z,3.46
2022-09-05T04:41:39.966Z,3.69
2022-09-05T04:42:37.566Z,3.38
2022-09-05T04:43:50.938Z,3.73
2022-09-05T04:45:07.250Z,3.67
2022-09-05T04:46:19.502Z,3.59
2022-09-05T04:47:41.802Z,3.46
2022-09-05T04:49:08.907Z,3.21
2022-09-05T04:50:24.147Z,3.76
2022-09-05T04:51:31.799Z,3.21
2022-09-05T04:53:05.454Z,3.99
2022-09-05T04:54:36.947Z,3.45
2022-09-05T04:55:51.059Z,3.67
2022-09-05T04:56:57.643Z,3.54
2022-09-05T04:58:07.614Z,3.69
2022-09-05T05:01:31.140Z,3.39
2022-09-05T05:06:03.643Z,3.92
2022-09-05T05:06:11.234Z,3.76
2022-09-05T05:06:15.300Z,3.30
2022-09-05T05:06:42.316Z,3.56
2022-09-05T05:07:48.546Z,3.31
2022-09-05T05:09:30.985Z,3.26
2022-09-05T05:13:00.731Z,3.51
2022-09-05T05:17:56.010Z,3.78
2022-09-05T05:18:07.793Z,3.70
2022-09-05T05:18:09.767Z,3.80
2022-09-05T05:18:10.551Z,3.89
2022-09-05T05:18:16.392Z,3.41
2022-09-05T05:18:59.976Z,3.58
2022-09-05T05:21:20.904Z,3.77
2022-09-05T05:22:25.994Z,3.73
2022-09-05T05:23:39.468Z,3.97
2022-09-05T05:24:52.934Z,3.43
2022-09-05T05:25:59.720Z,4.02
2022-09-05T05:27:24.725Z,3.96
2022-09-05T05:28:44.458Z,3.61
2022-09-05T05:30:08.478Z,4.09
2022-09-05T05:31:29.469Z,4.18
2022-09-05T05:32:46.070Z,3.86
2022-09-05T05:33:50.246Z,4.32
2022-09-05T05:35:00.476Z,3.99
2022-09-05T05:36:08.544Z,3.93
2022-09-05T05:37:32.485Z,3.94
2022-09-05T05:38:47.259Z,4.01
2022-09-05T05:41:33.893Z,4.57
2022-09-05T05:42:41.123Z,4.21
2022-09-05T05:43:46.632Z,4.22
2022-09-05T05:44:55.012Z,3.87
2022-09-05T05:46:01.261Z,4.23
2022-09-05T05:48:27.243Z,4.21
2022-09-05T05:49:41.192Z,4.30
2022-09-05T05:50:54.200Z,4.68
2022-09-05T05:52:08.459Z,4.59
2022-09-05T05:53:43.188Z,4.63
2022-09-05T05:55:37.622Z,4.27
2022-09-05T05:56:22.852Z,4.64
2022-09-05T05:58:03.934Z,4.54
2022-09-05T05:59:24.750Z,5.02
2022-09-05T06:00:51.559Z,5.08
2022-09-05T06:02:16.598Z,5.33
2022-09-05T06:05:18.341Z,4.70
2022-09-05T06:06:43.455Z,4.92
2022-09-05T06:10:53.897Z,5.45
2022-09-05T06:14:50.873Z,4.89
2022-09-05T06:14:51.011Z,4.94
2022-09-05T06:14:57.481Z,4.99
2022-09-05T06:15:05.412Z,5.28
2022-09-05T06:15:27.724Z,5.26
2022-09-05T06:17:12.175Z,5.21
2022-09-05T06:18:45.881Z,5.88
2022-09-05T06:22:07.671Z,6.47
2022-09-05T06:24:28.289Z,6.76
2022-09-05T06:25:56.274Z,6.91
2022-09-05T06:27:22.981Z,7.40
2022-09-05T06:30:21.360Z,7.02
2022-09-05T06:31:43.098Z,7.45
2022-09-05T06:33:12.828Z,7.08
2022-09-05T06:36:10.605Z,6.76
2022-09-05T06:37:34.400Z,6.67
2022-09-05T06:39:00.387Z,6.77
2022-09-05T06:40:20.509Z,7.26
2022-09-05T06:41:52.915Z,6.98
2022-09-05T06:43:19.108Z,7.03
2022-09-05T06:44:54.513Z,7.14
2022-09-05T06:47:22.856Z,6.58
2022-09-05T06:47:36.732Z,7.13
2022-09-05T06:49:30.033Z,6.91
2022-09-05T06:50:21.731Z,7.02
2022-09-05T06:51:31.687Z,6.96
2022-09-05T06:52:59.158Z,7.02
2022-09-05T06:54:27.630Z,6.57
2022-09-05T06:55:44.122Z,6.56
2022-09-05T06:58:51.188Z,7.02
2022-09-05T07:00:22.504Z,10.86
2022-09-05T07:01:53.851Z,18.19
2022-09-05T07:02:58.921Z,18.54
2022-09-05T07:04:33.185Z,18.40
2022-09-05T07:05:39.849Z,21.06
2022-09-05T07:07:06.460Z,21.29
2022-09-05T07:08:35.825Z,23.99
2022-09-05T07:11:11.410Z,34.76
2022-09-05T07:12:16.276Z,38.65
2022-09-05T07:13:44.647Z,44.36
2022-09-05T07:15:11.458Z,53.08
2022-09-05T07:16:26.528Z,58.11
2022-09-05T07:18:09.710Z,64.18
2022-09-05T07:19:03.342Z,75.62
2022-09-05T07:20:30.705Z,84.86
2022-09-05T07:21:46.953Z,97.16
2022-09-05T07:22:55.192Z,103.34
2022-09-05T07:24:11.146Z,102.84
2022-09-05T07:25:21.071Z,98.87
2022-09-05T07:26:49.711Z,92.01
2022-09-05T07:27:41.986Z,91.60
2022-09-05T07:28:46.359Z,92.39
2022-09-05T07:30:00.955Z,92.43
2022-09-05T07:31:04.290Z,97.97
2022-09-05T07:32:10.697Z,97.72
2022-09-05T07:33:21.015Z,99.58
2022-09-05T07:34:35.418Z,92.90
2022-09-05T07:35:42.714Z,92.85
2022-09-05T07:36:48.516Z,91.72
2022-09-05T07:38:11.035Z,87.64
2022-09-05T07:39:28.869Z,82.87
2022-09-05T07:40:30.886Z,83.07
2022-09-05T07:41:40.911Z,82.17
2022-09-05T07:43:10.096Z,77.59
2022-09-05T07:44:18.831Z,76.22
2022-09-05T07:45:29.106Z,77.11
2022-09-05T07:46:36.284Z,78.52
2022-09-05T07:47:43.591Z,77.27
2022-09-05T07:48:50.925Z,74.99
2022-09-05T07:52:23.517Z,77.76
2022-09-05T07:55:59.239Z,76.22
2022-09-05T07:56:47.671Z,75.96
2022-09-05T07:56:55.562Z,76.22
2022-09-05T07:57:02.365Z,79.98
2022-09-05T07:57:08.981Z,79.43
2022-09-05T07:57:30.361Z,82.78
2022-09-05T07:58:15.328Z,79.79
2022-09-05T07:59:24.740Z,78.19
2022-09-05T08:00:32.061Z,77.68
2022-09-05T08:01:39.847Z,74.22
2022-09-05T08:02:50.235Z,75.87
2022-09-05T08:04:00.363Z,74.94
2022-09-05T08:05:05.737Z,73.84
2022-09-05T08:06:15.648Z,71.58
2022-09-05T08:07:46.737Z,70.92
2022-09-05T08:09:18.634Z,68.80
2022-09-05T08:10:08.064Z,63.84
2022-09-05T08:11:24.204Z,55.52
2022-09-05T08:12:28.341Z,59.11
2022-09-05T08:13:46.586Z,62.44
2022-09-05T08:14:57.214Z,60.08
2022-09-05T08:36:00.787Z,51.45
2022-09-05T08:37:03.097Z,51.64
2022-09-05T08:38:09.006Z,52.15
2022-09-05T08:39:22.620Z,52.55
2022-09-05T08:40:35.980Z,51.01
2022-09-05T08:42:05.970Z,52.48
2022-09-05T08:46:32.170Z,51.23
2022-09-05T08:46:40.509Z,49.66
2022-09-05T08:46:47.281Z,52.48
2022-09-05T08:48:10.368Z,49.52
2022-09-05T08:51:01.172Z,47.79
2022-09-05T08:52:11.642Z,49.05
2022-09-05T08:53:52.245Z,47.49
2022-09-05T08:55:07.121Z,48.42
2022-09-05T08:56:23.081Z,49.88
2022-09-05T08:58:04.372Z,48.94
2022-09-05T08:59:27.635Z,47.39
2022-09-05T09:00:24.448Z,48.81
2022-09-05T09:02:13.780Z,48.73
2022-09-05T09:03:05.008Z,49.57
2022-09-05T09:04:41.690Z,45.94
2022-09-05T09:06:13.542Z,46.35
2022-09-05T09:07:47.224Z,46.25
2022-09-05T09:08:56.459Z,44.71
2022-09-05T09:10:25.767Z,46.63
2022-09-05T09:11:42.135Z,46.98
2022-09-05T09:12:55.327Z,46.44
2022-09-05T09:14:31.116Z,47.19
2022-09-05T09:16:16.289Z,43.91
2022-09-05T09:17:43.813Z,42.48
2022-09-05T09:18:54.122Z,41.08
2022-09-05T09:20:10.235Z,41.71
2022-09-05T09:21:35.899Z,41.43
2022-09-05T09:22:50.491Z,38.54
2022-09-05T09:24:00.630Z,37.97
2022-09-05T09:25:15.392Z,37.83
2022-09-05T09:26:25.444Z,38.23
2022-09-05T09:28:40.774Z,36.69
2022-09-05T09:29:06.940Z,36.51
2022-09-05T09:30:14.392Z,37.91
2022-09-05T09:31:39.333Z,35.34
2022-09-05T09:32:49.011Z,34.17
2022-09-05T09:34:23.766Z,31.62
2022-09-05T09:35:48.134Z,32.07
2022-09-05T09:37:31.965Z,31.04
2022-09-05T09:38:49.396Z,30.48
2022-09-05T09:40:23.271Z,28.71
2022-09-05T09:41:52.897Z,26.59
2022-09-05T09:43:10.417Z,27.99
2022-09-05T09:44:53.435Z,22.56
2022-09-05T09:46:10.922Z,20.96
2022-09-05T09:47:17.855Z,19.64
2022-09-05T09:48:36.637Z,20.14
2022-09-05T09:49:54.562Z,20.67
2022-09-05T09:51:19.056Z,21.29
2022-09-05T09:52:50.316Z,20.06
2022-09-05T09:54:03.937Z,19.12
2022-09-05T10:21:44.213Z,10.93
2022-09-05T10:23:15.179Z,9.69
2022-09-05T10:24:52.518Z,8.84
2022-09-05T10:26:27.589Z,8.61
2022-09-05T10:27:53.709Z,9.09
2022-09-05T10:29:35.237Z,8.24
2022-09-05T10:30:41.869Z,7.76
2022-09-05T10:33:16.956Z,7.13
2022-09-05T10:35:09.320Z,7.43
2022-09-05T10:35:16.837Z,7.54
2022-09-05T10:35:44.508Z,6.68
2022-09-05T10:37:05.153Z,5.80
2022-09-05T10:38:21.712Z,3.62
2022-09-05T10:39:31.689Z,3.91
2022-09-05T10:41:11.043Z,3.56
2022-09-05T10:41:51.038Z,4.02
2022-09-05T10:43:03.228Z,3.81
2022-09-05T10:44:12.427Z,2.02
2022-09-05T10:46:51.348Z,1.72
2022-09-05T10:48:14.261Z,2.06
2022-09-05T10:50:37.039Z,2.30
2022-09-05T10:51:53.188Z,3.08
2022-09-05T10:53:38.906Z,4.19
2022-09-05T10:54:38.599Z,2.67
2022-09-05T10:56:01.578Z,1.97
2022-09-05T10:57:20.911Z,1.89
2022-09-05T11:02:16.445Z,2.51
2022-09-05T11:02:19.266Z,2.93
2022-09-05T11:02:27.375Z,3.92
2022-09-05T11:02:49.095Z,4.54
2022-09-05T11:04:11.340Z,4.11
2022-09-05T11:05:27.871Z,4.62
2022-09-05T11:06:38.940Z,5.18
2022-09-05T11:08:07.262Z,4.84
2022-09-05T11:09:21.611Z,6.23
2022-09-05T11:10:40.469Z,5.34
2022-09-05T11:11:50.759Z,3.96
2022-09-05T11:13:06.623Z,4.68
2022-09-05T11:14:32.182Z,4.08
2022-09-05T11:16:04.355Z,3.98
2022-09-05T11:17:22.304Z,3.87
2022-09-05T11:18:56.458Z,3.80
2022-09-05T11:19:55.856Z,3.73
2022-09-05T11:22:29.399Z,3.41
2022-09-05T11:23:52.966Z,3.37
2022-09-05T11:25:02.335Z,3.36
2022-09-05T11:26:35.115Z,3.53
2022-09-05T11:27:44.696Z,3.34
2022-09-05T11:28:59.851Z,3.54
2022-09-05T11:30:09.051Z,3.11
2022-09-05T11:31:21.669Z,3.02
2022-09-05T11:37:52.256Z,2.88
2022-09-05T11:39:45.768Z,2.62
2022-09-05T11:39:48.206Z,2.54
2022-09-05T11:39:56.731Z,2.66
2022-09-05T11:40:26.341Z,2.36
2022-09-05T11:41:23.843Z,2.22
2022-09-05T11:42:52.023Z,2.09
2022-09-05T11:44:25.130Z,1.76
2022-09-05T11:45:42.766Z,1.93
2022-09-05T11:47:28.052Z,2.10
2022-09-05T11:48:55.447Z,1.76
2022-09-05T11:50:19.621Z,1.79
2022-09-05T11:51:49.004Z,1.62
2022-09-05T11:53:05.993Z,1.74
2022-09-05T11:54:13.681Z,1.45
2022-09-05T11:55:56.035Z,1.39
2022-09-05T11:57:31.894Z,1.39
2022-09-05T11:58:44.858Z,1.27
2022-09-05T12:00:31.301Z,1.29
2022-09-05T12:01:41.037Z,1.47
2022-09-05T12:02:45.005Z,1.48
2022-09-05T12:04:13.789Z,1.51
2022-09-05T12:05:48.966Z,1.33
2022-09-05T12:07:26.259Z,1.34
2022-09-05T12:08:32.928Z,1.35
2022-09-05T12:09:53.450Z,1.49
2022-09-05T12:11:11.005Z,1.30
2022-09-05T12:12:39.018Z,1.76
2022-09-05T12:13:39.999Z,1.79
2022-09-05T12:15:16.607Z,1.44
2022-09-05T12:16:41.951Z,1.63
2022-09-05T12:17:48.378Z,1.40
2022-09-05T12:19:18.982Z,1.39
2022-09-05T12:20:22.133Z,1.36
2022-09-05T12:21:35.637Z,1.41
2022-09-05T12:22:57.466Z,1.46
2022-09-05T12:25:24.198Z,1.32
2022-09-05T12:27:41.872Z,1.34
2022-09-05T12:27:42.551Z,1.09
2022-09-05T12:27:58.572Z,1.34
2022-09-05T12:29:32.607Z,1.30
2022-09-05T12:30:28.791Z,1.19
2022-09-05T12:32:37.720Z,1.31
2022-09-05T12:36:01.834Z,1.23
2022-09-05T12:36:04.240Z,1.30
2022-09-05T12:36:09.888Z,1.23
2022-09-05T12:40:28.688Z,1.43
2022-09-05T12:40:56.293Z,1.24
2022-09-05T12:40:56.296Z,1.32
2022-09-05T12:41:36.785Z,1.62
2022-09-05T12:42:11.335Z,1.74
2022-09-05T12:44:37.493Z,1.28
2022-09-05T12:44:39.478Z,2.01
2022-09-05T12:45:58.536Z,1.85
2022-09-05T12:47:18.835Z,1.94
2022-09-05T12:48:16.079Z,2.12
2022-09-05T12:49:47.275Z,2.28
2022-09-05T12:50:58.984Z,2.61
2022-09-05T12:52:09.217Z,2.57
2022-09-05T12:53:21.843Z,3.31
2022-09-05T12:54:33.346Z,3.06
2022-09-05T12:55:46.988Z,3.34
2022-09-05T13:02:02.811Z,3.38
2022-09-05T13:02:59.071Z,3.02
2022-09-05T13:03:01.530Z,3.52
2022-09-05T13:03:07.415Z,3.54
2022-09-05T13:03:14.118Z,3.09
2022-09-05T13:03:30.058Z,3.73
2022-09-05T13:04:47.339Z,3.51
2022-09-05T13:05:52.989Z,3.54
2022-09-05T13:07:10.481Z,2.88
2022-09-05T13:08:22.735Z,2.53
2022-09-05T13:10:39.443Z,2.81
2022-09-05T13:14:28.991Z,2.95
2022-09-05T13:14:50.100Z,2.92
2022-09-05T13:14:53.363Z,3.16
2022-09-05T13:14:59.360Z,3.28
2022-09-05T13:15:27.953Z,3.01
2022-09-05T13:16:35.083Z,3.17
2022-09-05T13:17:44.432Z,3.36
2022-09-05T13:18:50.928Z,3.47
2022-09-05T13:19:56.292Z,3.52
2022-09-05T13:21:14.023Z,3.34
2022-09-05T13:22:21.660Z,3.92
2022-09-05T13:23:40.974Z,4.41
2022-09-05T13:24:50.027Z,4.22
2022-09-05T13:26:02.407Z,4.47
2022-09-05T13:27:18.288Z,4.08
2022-09-05T13:28:25.148Z,4.32
2022-09-05T13:29:38.554Z,4.39
2022-09-05T13:37:54.634Z,4.19
2022-09-05T13:37:59.938Z,4.57
2022-09-05T13:38:02.724Z,4.14
2022-09-05T13:38:15.038Z,4.75
2022-09-05T13:38:21.304Z,4.75
2022-09-05T13:38:28.838Z,4.34
2022-09-05T13:38:47.507Z,4.13
2022-09-05T13:39:29.767Z,4.02
2022-09-05T13:40:49.707Z,4.30
2022-09-05T13:41:57.437Z,3.68
2022-09-05T13:43:14.887Z,4.06
2022-09-05T13:44:26.354Z,4.17
2022-09-05T13:45:30.446Z,3.60
2022-09-05T13:46:39.459Z,4.05
2022-09-05T13:48:01.312Z,3.88
2022-09-05T13:49:26.507Z,4.19
2022-09-05T13:50:42.075Z,4.10
2022-09-05T13:51:50.583Z,4.62
2022-09-05T13:52:59.931Z,4.49
2022-09-05T13:54:16.677Z,4.57
2022-09-05T13:56:39.034Z,4.31
2022-09-05T13:57:54.693Z,4.14
2022-09-05T13:59:11.137Z,3.73
2022-09-05T14:00:28.737Z,3.67
2022-09-05T14:01:36.424Z,3.81
2022-09-05T14:05:06.006Z,4.67
2022-09-05T14:06:47.057Z,4.58
2022-09-05T14:07:46.337Z,5.58
2022-09-05T14:10:34.574Z,6.06
2022-09-05T14:12:15.007Z,6.35
2022-09-05T14:13:36.626Z,5.94
2022-09-05T14:15:59.056Z,7.69
2022-09-05T14:18:44.265Z,8.58
2022-09-05T14:20:10.917Z,8.48
2022-09-05T14:21:16.893Z,8.72
2022-09-05T14:22:44.178Z,9.63
2022-09-05T14:24:03.167Z,9.83
2022-09-05T14:25:27.041Z,9.34
2022-09-05T14:26:43.952Z,9.29
2022-09-05T14:27:51.288Z,9.13
2022-09-05T14:29:19.695Z,9.43
2022-09-05T14:33:32.507Z,8.86
2022-09-05T14:37:34.844Z,7.49
2022-09-05T14:37:43.765Z,6.11
2022-09-05T14:37:48.705Z,6.88
2022-09-05T14:37:53.547Z,6.27
2022-09-05T14:38:01.085Z,6.54
2022-09-05T14:38:57.862Z,5.51
2022-09-05T14:40:33.036Z,5.69
2022-09-05T14:41:43.218Z,4.66
2022-09-05T14:43:07.389Z,5.10
2022-09-05T14:44:41.676Z,4.53
2022-09-05T14:46:04.236Z,4.34
2022-09-05T14:47:38.603Z,4.16
2022-09-05T14:49:00.850Z,4.22
2022-09-05T14:50:17.955Z,4.18
2022-09-05T14:51:26.530Z,4.40
2022-09-05T14:52:35.498Z,4.03
2022-09-05T14:54:06.190Z,4.07
2022-09-05T15:02:47.896Z,4.53
2022-09-05T15:02:50.437Z,5.09
2022-09-05T15:02:53.944Z,4.81
2022-09-05T15:02:56.876Z,4.67
2022-09-05T15:05:03.137Z,5.71
2022-09-05T15:06:28.107Z,5.91
2022-09-05T15:07:37.789Z,5.50
2022-09-05T15:11:15.224Z,5.97
2022-09-05T15:12:15.016Z,5.19
2022-09-05T15:12:16.832Z,6.17
2022-09-05T15:12:31.343Z,5.75
2022-09-05T15:13:25.780Z,5.19
2022-09-05T15:14:33.258Z,5.21
2022-09-05T15:16:02.901Z,4.51
2022-09-05T15:17:10.549Z,5.16
2022-09-05T15:20:06.375Z,4.98
2022-09-05T15:21:34.534Z,4.88
2022-09-05T15:22:43.242Z,5.02
2022-09-05T15:25:25.497Z,5.34
2022-09-05T15:26:33.006Z,4.86
2022-09-05T15:27:37.057Z,5.06
2022-09-05T15:28:46.586Z,5.44
2022-09-05T15:29:55.247Z,5.25
2022-09-05T15:31:06.149Z,4.69
2022-09-05T15:32:23.620Z,5.13
2022-09-05T15:33:30.636Z,5.27
2022-09-05T15:34:38.507Z,5.41
2022-09-05T15:35:47.409Z,4.78
2022-09-05T15:37:09.282Z,4.47
2022-09-05T15:38:06.261Z,5.04
2022-09-05T15:39:29.168Z,4.85
2022-09-05T15:40:33.161Z,4.01
2022-09-05T15:41:43.382Z,3.83
2022-09-05T15:42:59.362Z,4.29
2022-09-05T15:44:09.687Z,4.19
2022-09-05T15:45:15.516Z,4.29
2022-09-05T15:46:51.012Z,5.18
2022-09-05T15:48:16.813Z,6.29
2022-09-05T15:49:43.788Z,6.17
2022-09-05T15:50:50.645Z,6.12
2022-09-05T15:53:15.647Z,6.18
2022-09-05T15:54:38.335Z,6.36
2022-09-05T15:55:58.251Z,6.36
2022-09-05T15:57:02.586Z,6.66
2022-09-05T15:58:11.470Z,6.27
2022-09-05T15:59:21.810Z,6.21
2022-09-05T16:00:37.205Z,6.28
2022-09-05T16:01:58.412Z,6.09
2022-09-05T16:03:05.320Z,6.37
2022-09-05T16:06:25.293Z,5.56
2022-09-05T16:10:36.681Z,5.32
2022-09-05T16:10:41.283Z,5.21
2022-09-05T16:10:45.158Z,4.91
2022-09-05T16:10:50.569Z,5.97
2022-09-05T16:13:08.337Z,4.67
2022-09-05T16:14:39.617Z,3.98
2022-09-05T16:20:31.631Z,3.85
2022-09-05T16:23:12.738Z,3.56
2022-09-05T16:23:13.513Z,3.27
2022-09-05T16:23:23.592Z,2.73
2022-09-05T16:23:26.985Z,3.23
2022-09-05T16:24:58.073Z,2.49
2022-09-05T16:25:52.444Z,2.37
2022-09-05T16:27:02.678Z,2.54
2022-09-05T16:28:17.268Z,2.40
2022-09-05T16:29:26.640Z,2.13
2022-09-05T16:30:33.766Z,2.22
2022-09-05T16:31:41.832Z,2.12
2022-09-05T16:32:51.457Z,2.22
2022-09-05T16:33:55.763Z,2.25
2022-09-05T16:35:10.406Z,2.21
2022-09-05T16:36:18.194Z,1.97
2022-09-05T16:37:42.546Z,1.96
2022-09-05T16:38:53.042Z,1.96
2022-09-05T16:40:03.094Z,2.03
2022-09-05T16:42:46.615Z,2.06
2022-09-05T16:43:57.702Z,2.03
2022-09-05T16:45:06.183Z,2.03
2022-09-05T16:46:33.222Z,2.19
2022-09-05T16:47:40.632Z,2.19
2022-09-05T16:49:05.769Z,2.19
2022-09-05T16:50:34.129Z,2.44
2022-09-05T16:51:40.433Z,2.47
2022-09-05T16:52:56.121Z,2.08
2022-09-05T16:55:49.002Z,2.40
2022-09-05T16:57:02.634Z,2.80
2022-09-05T16:58:18.944Z,2.48
2022-09-05T16:59:28.566Z,2.54
2022-09-05T17:00:42.990Z,2.56
2022-09-05T17:02:12.666Z,2.48
2022-09-05T17:03:29.296Z,2.54
2022-09-05T17:05:03.312Z,3.01
2022-09-05T17:06:03.685Z,2.67
2022-09-05T17:08:44.401Z,2.93
2022-09-05T17:09:51.714Z,2.66
2022-09-05T17:11:12.149Z,2.65
2022-09-05T17:12:21.949Z,2.78
2022-09-05T17:13:46.531Z,2.61
2022-09-05T17:14:54.841Z,2.67
2022-09-05T17:16:00.607Z,2.33
2022-09-05T17:17:36.488Z,2.30
2022-09-05T17:18:26.956Z,2.33
2022-09-05T17:19:37.500Z,2.19
2022-09-05T17:20:43.035Z,2.19
2022-09-05T17:27:19.895Z,2.22
2022-09-05T17:29:07.319Z,1.93
2022-09-05T17:29:28.587Z,2.34
2022-09-05T17:29:31.263Z,1.82
2022-09-05T17:29:33.141Z,1.91
2022-09-05T17:32:19.006Z,1.67
2022-09-05T17:33:43.414Z,1.51
2022-09-05T17:34:58.789Z,1.67
2022-09-05T17:36:08.099Z,1.65
2022-09-05T17:37:42.427Z,1.81
2022-09-05T17:39:09.426Z,1.72
2022-09-05T17:40:41.338Z,1.62
2022-09-05T17:43:01.555Z,1.47
2022-09-05T17:44:16.859Z,1.62
2022-09-05T17:45:35.781Z,1.46
2022-09-05T17:46:54.552Z,1.66
2022-09-05T17:49:19.676Z,1.42
2022-09-05T17:51:51.103Z,1.46
2022-09-05T17:53:00.163Z,1.26
2022-09-05T17:54:11.461Z,1.37
2022-09-05T17:55:19.858Z,1.52
2022-09-05T17:56:41.730Z,1.32
2022-09-05T17:57:48.757Z,1.40
2022-09-05T17:59:16.539Z,1.57
2022-09-05T18:00:49.121Z,1.72
2022-09-05T18:02:16.486Z,1.73
2022-09-05T18:05:06.442Z,2.06
2022-09-05T18:06:22.153Z,2.09
2022-09-05T18:07:30.061Z,2.06
2022-09-05T18:11:28.360Z,2.45
2022-09-05T18:13:13.348Z,2.01
2022-09-05T18:14:01.756Z,2.04
2022-09-05T18:15:09.846Z,1.90
2022-09-05T18:16:14.401Z,2.06
2022-09-05T18:17:38.682Z,1.95
2022-09-05T18:19:57.757Z,1.67
2022-09-05T18:22:30.727Z,1.72
2022-09-05T18:24:47.731Z,1.70
2022-09-05T18:26:04.557Z,1.55
2022-09-05T18:28:03.702Z,1.76
2022-09-05T18:29:08.204Z,1.66
2022-09-05T18:33:55.223Z,1.37
2022-09-05T18:34:29.004Z,1.51
2022-09-05T18:35:38.707Z,1.46
2022-09-05T18:36:51.169Z,1.89
2022-09-05T18:38:01.146Z,1.60
2022-09-05T18:39:29.794Z,1.35
2022-09-05T18:40:49.676Z,1.45
2022-09-05T18:42:26.568Z,1.46
2022-09-05T18:45:15.331Z,1.71
2022-09-05T18:46:21.786Z,1.35
2022-09-05T18:47:32.987Z,1.28
2022-09-05T18:49:57.565Z,1.43
2022-09-05T18:50:23.284Z,1.53
2022-09-05T18:51:15.092Z,1.52
2022-09-05T18:52:23.308Z,1.24
2022-09-05T18:53:33.963Z,1.51
2022-09-05T18:54:41.370Z,1.16
2022-09-05T18:56:13.520Z,1.30
2022-09-05T18:57:26.602Z,1.20
2022-09-05T18:58:27.959Z,1.33
2022-09-05T18:59:40.434Z,1.19
2022-09-05T19:00:50.805Z,1.53
2022-09-05T19:01:58.566Z,1.33
2022-09-05T19:03:10.004Z,1.09
2022-09-05T19:04:40.335Z,1.26
2022-09-05T19:05:37.818Z,1.32
2022-09-05T19:06:45.498Z,1.37
2022-09-05T19:07:59.474Z,1.45
2022-09-05T19:09:04.982Z,1.24
2022-09-05T19:10:35.622Z,1.26
2022-09-05T19:11:28.073Z,1.28
2022-09-05T19:12:42.028Z,1.32
2022-09-05T19:13:44.232Z,1.42
2022-09-05T19:14:57.594Z,1.16
2022-09-05T19:16:43.993Z,1.52
2022-09-05T19:17:19.573Z,1.22
2022-09-05T19:18:26.914Z,1.04
2022-09-05T19:19:30.925Z,1.25
2022-09-05T19:20:57.700Z,1.49
2022-09-05T19:23:02.681Z,1.44
2022-09-05T19:23:16.760Z,1.42
2022-09-05T19:24:24.769Z,1.44
2022-09-05T19:25:35.043Z,1.31
2022-09-05T19:26:40.046Z,1.36
2022-09-05T19:36:46.140Z,1.52
2022-09-05T19:36:49.567Z,1.35
2022-09-05T19:36:51.165Z,1.09
2022-09-05T19:36:51.247Z,1.25
2022-09-05T19:36:59.990Z,1.22
2022-09-05T19:37:04.965Z,1.28